»·PEaware :: N54102 KMCC-KMCC

N54102 :: KMCC-KMCC

FLIGHT INFORMATION

Flight Status: Arrived
Operator: Privately registered:
United States
More flights under this callsign
Pilot: Chris B. (23589)
Aircraft: CESSNA 172 SKYHAWK
(C172)
More flights by this aircraft type
Origin: KMCC McClellan
United States
Destination: KMCC McClellan
United States
More flights between these airports :: More routes between these airports
Route: +SAC
File this flight plan on PilotEdge
Remarks: Check ride prep
Altitude:
(Current/Filed)
3,000ft
Speed:
(Current/Filed)
110kts
Departed: 11-Nov-20 03:06 PM
Arrived: 11-Nov-20 04:14 PM
Distance/Time
Traveled:
0nm/1:08
Distance/Time
To Go:
Arrived

Flight Plot

Page will automatically refresh every two minutes.

Flight plan parsing failed; only flown route is shown


Map Options




Map Legend


Flown Route
Filed Route
Departure Airport
Arrival Airport
Navaid (VOR, NDB)
Fix

Horizontal Profiles

Position Reports

Time Latitude Longitude Heading Altitude Ground
Speed
11-Nov-20 14:48 38.663067 -121.397116 180 74ft 0kts
11-Nov-20 14:49 38.663067 -121.397116 180 74ft 0kts
11-Nov-20 14:50 38.663067 -121.397116 180 74ft 0kts
11-Nov-20 14:51 38.663067 -121.397116 180 74ft 0kts
11-Nov-20 14:52 38.662398 -121.396856 145 75ft 0kts
11-Nov-20 14:53 38.662398 -121.396856 145 75ft 0kts
11-Nov-20 14:54 38.662398 -121.396856 145 75ft 0kts
11-Nov-20 14:55 38.662398 -121.396856 145 75ft 0kts
11-Nov-20 14:56 38.662398 -121.396856 145 75ft 0kts
11-Nov-20 14:57 38.662398 -121.396856 145 75ft 0kts
11-Nov-20 14:58 38.660157 -121.397858 182 75ft 14kts
11-Nov-20 14:59 38.655161 -121.397872 180 74ft 18kts
11-Nov-20 15:00 38.653783 -121.399489 237 70ft 0kts
11-Nov-20 15:01 38.653783 -121.399489 237 70ft 0kts
11-Nov-20 15:02 38.653783 -121.399489 237 70ft 0kts
11-Nov-20 15:03 38.653783 -121.399489 237 70ft 0kts
11-Nov-20 15:04 38.653730 -121.399600 240 70ft 5kts
11-Nov-20 15:05 38.662964 -121.400863 356 302ft 74kts
11-Nov-20 15:06 38.669250 -121.417367 208 1125ft 90kts
11-Nov-20 15:07 38.646441 -121.429641 209 1932ft 89kts
11-Nov-20 15:08 38.622352 -121.438015 186 2643ft 91kts
11-Nov-20 15:09 38.597490 -121.440088 202 3316ft 89kts
11-Nov-20 15:10 38.572838 -121.447630 193 3912ft 92kts
11-Nov-20 15:11 38.545035 -121.456682 195 4041ft 109kts
11-Nov-20 15:12 38.518776 -121.476591 220 4063ft 110kts
11-Nov-20 15:13 38.494162 -121.500484 219 4022ft 111kts
11-Nov-20 15:14 38.469772 -121.524817 221 3958ft 111kts
11-Nov-20 15:15 38.446384 -121.550581 223 3951ft 110kts
11-Nov-20 15:16 38.419241 -121.568865 201 3965ft 112kts
11-Nov-20 15:17 38.414691 -121.589261 35 3891ft 104kts
11-Nov-20 15:18 38.433667 -121.562499 41 3974ft 99kts
11-Nov-20 15:19 38.448506 -121.535586 120 4032ft 108kts
11-Nov-20 15:20 38.423956 -121.548333 221 4068ft 109kts
11-Nov-20 15:21 38.407533 -121.577185 307 4008ft 104kts
11-Nov-20 15:22 38.428620 -121.560569 34 3955ft 100kts
11-Nov-20 15:23 38.436020 -121.527562 82 3926ft 105kts
11-Nov-20 15:24 38.439663 -121.491374 76 3975ft 102kts
11-Nov-20 15:25 38.444798 -121.455557 74 4011ft 102kts
11-Nov-20 15:26 38.459011 -121.461151 285 4775ft 86kts
11-Nov-20 15:27 38.461889 -121.491382 289 5424ft 85kts
11-Nov-20 15:28 38.464343 -121.521042 233 5996ft 94kts
11-Nov-20 15:29 38.443074 -121.545764 218 6094ft 104kts
11-Nov-20 15:30 38.443075 -121.580094 287 6113ft 100kts
11-Nov-20 15:31 38.448624 -121.615568 272 5968ft 103kts
11-Nov-20 15:32 38.449739 -121.652074 273 5904ft 103kts
11-Nov-20 15:33 38.451526 -121.688426 279 5909ft 102kts
11-Nov-20 15:34 38.473409 -121.699943 5 5937ft 96kts
11-Nov-20 15:35 38.498929 -121.694445 60 5982ft 100kts
11-Nov-20 15:36 38.478069 -121.681572 180 6044ft 104kts
11-Nov-20 15:37 38.452656 -121.691840 269 6018ft 107kts
11-Nov-20 15:38 38.476731 -121.699365 1 6022ft 101kts
11-Nov-20 15:39 38.503556 -121.693417 59 5934ft 107kts
11-Nov-20 15:40 38.490686 -121.660530 120 5552ft 105kts
11-Nov-20 15:41 38.477387 -121.627060 124 5189ft 107kts
11-Nov-20 15:42 38.460783 -121.595875 123 4935ft 105kts
11-Nov-20 15:43 38.446184 -121.564343 102 4956ft 103kts
11-Nov-20 15:44 38.429400 -121.537157 140 5037ft 102kts
11-Nov-20 15:45 38.431553 -121.502292 70 4949ft 104kts
11-Nov-20 15:46 38.430134 -121.469804 178 4928ft 108kts
11-Nov-20 15:47 38.433054 -121.499746 287 4938ft 102kts
11-Nov-20 15:48 38.441280 -121.534183 289 4990ft 100kts
11-Nov-20 15:49 38.453508 -121.563544 4 4996ft 98kts
11-Nov-20 15:50 38.453419 -121.531696 99 5021ft 103kts
11-Nov-20 15:51 38.446896 -121.496046 118 5041ft 107kts
11-Nov-20 15:52 38.435051 -121.513100 287 5067ft 99kts
11-Nov-20 15:53 38.442766 -121.547752 291 5025ft 102kts
11-Nov-20 15:54 38.456424 -121.550941 99 4946ft 104kts
11-Nov-20 15:55 38.448533 -121.515441 99 4932ft 103kts
11-Nov-20 15:56 38.435742 -121.487134 193 4970ft 99kts
11-Nov-20 15:57 38.435359 -121.517543 299 4742ft 100kts
11-Nov-20 15:58 38.448340 -121.548997 323 4283ft 102kts
11-Nov-20 15:59 38.457497 -121.527881 108 3987ft 100kts
11-Nov-20 16:00 38.449566 -121.496691 77 3888ft 93kts
11-Nov-20 16:01 38.452594 -121.463831 80 3446ft 94kts
11-Nov-20 16:02 38.457130 -121.431267 75 3022ft 94kts
11-Nov-20 16:03 38.460354 -121.398417 78 3078ft 94kts
11-Nov-20 16:04 38.465934 -121.363726 49 2972ft 99kts
11-Nov-20 16:05 38.490708 -121.361385 344 2445ft 99kts
11-Nov-20 16:06 38.516564 -121.367417 346 2256ft 92kts
11-Nov-20 16:07 38.541585 -121.374518 350 2245ft 90kts
11-Nov-20 16:08 38.566373 -121.380327 347 1985ft 92kts
11-Nov-20 16:09 38.591008 -121.388105 351 1490ft 90kts
11-Nov-20 16:10 38.615864 -121.392409 347 994ft 89kts
11-Nov-20 16:11 38.640230 -121.398045 350 534ft 88kts
11-Nov-20 16:13 38.663413 -121.400614 357 84ft 66kts
11-Nov-20 16:14 38.669145 -121.399332 106 70ft 0kts
11-Nov-20 16:15 38.669045 -121.397502 89 72ft 15kts
11-Nov-20 16:16 38.669191 -121.394100 81 76ft 0kts

Navigation Log

Ident Type
Flight plan parsing failed, navigation log unavailable